sensor_id;sensor_type;location;lat;lon;timestamp;temperature;humidity
13694;DHT22;6919;52.344;14.518;2023-05-13T00:00:32;14.10;13.20
13694;DHT22;6919;52.344;14.518;2023-05-13T00:03:02;14.00;15.00
13694;DHT22;6919;52.344;14.518;2023-05-13T00:05:30;13.80;20.70
13694;DHT22;6919;52.344;14.518;2023-05-13T00:07:59;13.80;19.60
13694;DHT22;6919;52.344;14.518;2023-05-13T00:10:32;13.80;24.40
13694;DHT22;6919;52.344;14.518;2023-05-13T00:13:01;13.80;23.80
13694;DHT22;6919;52.344;14.518;2023-05-13T00:15:30;13.70;24.90
13694;DHT22;6919;52.344;14.518;2023-05-13T00:17:58;13.60;27.90
13694;DHT22;6919;52.344;14.518;2023-05-13T00:20:28;13.60;32.40
13694;DHT22;6919;52.344;14.518;2023-05-13T00:22:56;13.60;30.90
13694;DHT22;6919;52.344;14.518;2023-05-13T00:25:24;13.60;30.20
13694;DHT22;6919;52.344;14.518;2023-05-13T00:27:53;13.70;26.70
13694;DHT22;6919;52.344;14.518;2023-05-13T00:30:21;13.70;22.20
13694;DHT22;6919;52.344;14.518;2023-05-13T00:32:50;13.80;19.40
13694;DHT22;6919;52.344;14.518;2023-05-13T00:35:18;13.80;22.30
13694;DHT22;6919;52.344;14.518;2023-05-13T00:37:48;13.80;21.10
13694;DHT22;6919;52.344;14.518;2023-05-13T00:40:19;13.90;18.10
13694;DHT22;6919;52.344;14.518;2023-05-13T00:42:49;13.90;19.00
13694;DHT22;6919;52.344;14.518;2023-05-13T00:45:18;13.90;19.60
13694;DHT22;6919;52.344;14.518;2023-05-13T00:47:47;13.90;18.40
13694;DHT22;6919;52.344;14.518;2023-05-13T00:50:16;13.90;19.60
13694;DHT22;6919;52.344;14.518;2023-05-13T00:52:45;13.80;18.90
13694;DHT22;6919;52.344;14.518;2023-05-13T00:55:17;13.90;18.00
13694;DHT22;6919;52.344;14.518;2023-05-13T00:57:45;13.80;19.90
13694;DHT22;6919;52.344;14.518;2023-05-13T01:00:14;13.70;31.30
13694;DHT22;6919;52.344;14.518;2023-05-13T01:02:47;13.70;30.00
13694;DHT22;6919;52.344;14.518;2023-05-13T01:05:24;13.80;27.80
13694;DHT22;6919;52.344;14.518;2023-05-13T01:08:04;13.80;27.40
13694;DHT22;6919;52.344;14.518;2023-05-13T01:10:46;13.80;28.50
13694;DHT22;6919;52.344;14.518;2023-05-13T01:13:21;13.70;30.50
13694;DHT22;6919;52.344;14.518;2023-05-13T01:15:55;13.80;27.20
13694;DHT22;6919;52.344;14.518;2023-05-13T01:18:33;13.80;23.30
13694;DHT22;6919;52.344;14.518;2023-05-13T01:21:05;13.70;24.10
13694;DHT22;6919;52.344;14.518;2023-05-13T01:23:36;13.60;23.30
13694;DHT22;6919;52.344;14.518;2023-05-13T01:26:05;13.60;21.10
13694;DHT22;6919;52.344;14.518;2023-05-13T01:28:33;13.60;21.60
13694;DHT22;6919;52.344;14.518;2023-05-13T01:31:02;13.60;24.00
13694;DHT22;6919;52.344;14.518;2023-05-13T01:33:31;13.50;26.00
13694;DHT22;6919;52.344;14.518;2023-05-13T01:36:00;13.50;26.40
13694;DHT22;6919;52.344;14.518;2023-05-13T01:38:30;13.40;30.90
13694;DHT22;6919;52.344;14.518;2023-05-13T01:41:01;13.20;38.60
13694;DHT22;6919;52.344;14.518;2023-05-13T01:43:29;13.10;41.10
13694;DHT22;6919;52.344;14.518;2023-05-13T01:45:58;13.10;44.70
13694;DHT22;6919;52.344;14.518;2023-05-13T01:48:27;13.00;49.00
13694;DHT22;6919;52.344;14.518;2023-05-13T01:50:56;13.00;51.70
13694;DHT22;6919;52.344;14.518;2023-05-13T01:53:24;12.90;53.40
13694;DHT22;6919;52.344;14.518;2023-05-13T01:55:53;12.90;56.80
13694;DHT22;6919;52.344;14.518;2023-05-13T01:58:22;12.70;67.10
13694;DHT22;6919;52.344;14.518;2023-05-13T02:00:51;12.70;77.70
13694;DHT22;6919;52.344;14.518;2023-05-13T02:03:19;12.60;87.70
13694;DHT22;6919;52.344;14.518;2023-05-13T02:05:48;12.60;99.90
13694;DHT22;6919;52.344;14.518;2023-05-13T02:08:16;12.60;91.70
13694;DHT22;6919;52.344;14.518;2023-05-13T02:10:52;12.60;90.00
13694;DHT22;6919;52.344;14.518;2023-05-13T02:13:23;12.70;78.10
13694;DHT22;6919;52.344;14.518;2023-05-13T02:15:52;12.50;84.30
13694;DHT22;6919;52.344;14.518;2023-05-13T02:18:20;12.50;96.60
13694;DHT22;6919;52.344;14.518;2023-05-13T02:20:49;12.40;99.90
13694;DHT22;6919;52.344;14.518;2023-05-13T02:23:17;12.30;99.90
13694;DHT22;6919;52.344;14.518;2023-05-13T02:25:46;12.20;99.90
13694;DHT22;6919;52.344;14.518;2023-05-13T02:28:14;12.10;99.90
13694;DHT22;6919;52.344;14.518;2023-05-13T02:30:44;12.00;99.90
13694;DHT22;6919;52.344;14.518;2023-05-13T02:33:12;11.90;99.90
13694;DHT22;6919;52.344;14.518;2023-05-13T02:35:40;11.80;99.90
13694;DHT22;6919;52.344;14.518;2023-05-13T02:38:08;11.80;99.90
13694;DHT22;6919;52.344;14.518;2023-05-13T02:40:37;11.90;99.90
13694;DHT22;6919;52.344;14.518;2023-05-13T02:43:06;12.00;99.90
13694;DHT22;6919;52.344;14.518;2023-05-13T02:45:34;12.00;99.90
13694;DHT22;6919;52.344;14.518;2023-05-13T02:48:04;12.00;99.90
13694;DHT22;6919;52.344;14.518;2023-05-13T02:50:32;12.00;99.90
13694;DHT22;6919;52.344;14.518;2023-05-13T02:53:00;12.10;99.90
13694;DHT22;6919;52.344;14.518;2023-05-13T02:55:29;12.20;99.90
13694;DHT22;6919;52.344;14.518;2023-05-13T02:57:57;12.30;98.60
13694;DHT22;6919;52.344;14.518;2023-05-13T03:00:25;12.30;99.90
13694;DHT22;6919;52.344;14.518;2023-05-13T03:02:53;12.40;99.90
13694;DHT22;6919;52.344;14.518;2023-05-13T03:05:24;12.30;99.70
13694;DHT22;6919;52.344;14.518;2023-05-13T03:07:55;12.20;97.30
13694;DHT22;6919;52.344;14.518;2023-05-13T03:10:24;12.20;99.80
13694;DHT22;6919;52.344;14.518;2023-05-13T03:12:52;12.20;96.60
13694;DHT22;6919;52.344;14.518;2023-05-13T03:15:21;12.20;97.60
13694;DHT22;6919;52.344;14.518;2023-05-13T03:17:49;12.20;92.80
13694;DHT22;6919;52.344;14.518;2023-05-13T03:20:18;12.20;94.30
13694;DHT22;6919;52.344;14.518;2023-05-13T03:22:48;12.10;99.90
13694;DHT22;6919;52.344;14.518;2023-05-13T03:25:16;12.10;91.70
13694;DHT22;6919;52.344;14.518;2023-05-13T03:27:45;12.20;79.70
13694;DHT22;6919;52.344;14.518;2023-05-13T03:30:13;12.30;78.30
13694;DHT22;6919;52.344;14.518;2023-05-13T03:32:41;12.30;80.30
13694;DHT22;6919;52.344;14.518;2023-05-13T03:35:10;12.40;69.10
13694;DHT22;6919;52.344;14.518;2023-05-13T03:37:38;12.40;70.20
13694;DHT22;6919;52.344;14.518;2023-05-13T03:40:08;12.30;99.40
13694;DHT22;6919;52.344;14.518;2023-05-13T03:42:37;12.20;97.00
13694;DHT22;6919;52.344;14.518;2023-05-13T03:45:07;12.30;94.00
13694;DHT22;6919;52.344;14.518;2023-05-13T03:47:36;12.10;99.90
13694;DHT22;6919;52.344;14.518;2023-05-13T03:50:06;12.20;99.90
13694;DHT22;6919;52.344;14.518;2023-05-13T03:52:36;12.30;99.00
13694;DHT22;6919;52.344;14.518;2023-05-13T03:55:04;12.20;94.90
13694;DHT22;6919;52.344;14.518;2023-05-13T03:57:34;12.30;93.60
13694;DHT22;6919;52.344;14.518;2023-05-13T04:00:03;12.30;90.30
13694;DHT22;6919;52.344;14.518;2023-05-13T04:02:32;12.30;97.50
13694;DHT22;6919;52.344;14.518;2023-05-13T04:05:00;12.40;99.90
13694;DHT22;6919;52.344;14.518;2023-05-13T04:07:31;12.40;99.90
13694;DHT22;6919;52.344;14.518;2023-05-13T04:09:59;12.40;99.90
13694;DHT22;6919;52.344;14.518;2023-05-13T04:12:28;12.40;99.90
13694;DHT22;6919;52.344;14.518;2023-05-13T04:14:58;12.60;99.90
13694;DHT22;6919;52.344;14.518;2023-05-13T04:17:26;12.60;93.30
13694;DHT22;6919;52.344;14.518;2023-05-13T04:19:55;12.60;99.90
13694;DHT22;6919;52.344;14.518;2023-05-13T04:22:23;12.60;99.90
13694;DHT22;6919;52.344;14.518;2023-05-13T04:24:52;12.70;99.90
13694;DHT22;6919;52.344;14.518;2023-05-13T04:27:22;13.00;99.90
13694;DHT22;6919;52.344;14.518;2023-05-13T04:29:50;13.00;99.90
13694;DHT22;6919;52.344;14.518;2023-05-13T04:32:20;13.30;87.20
13694;DHT22;6919;52.344;14.518;2023-05-13T04:34:49;13.30;83.80
13694;DHT22;6919;52.344;14.518;2023-05-13T04:37:18;13.40;68.10
13694;DHT22;6919;52.344;14.518;2023-05-13T04:39:46;13.40;68.80
13694;DHT22;6919;52.344;14.518;2023-05-13T04:42:15;13.70;69.10
13694;DHT22;6919;52.344;14.518;2023-05-13T04:44:44;13.90;53.20
13694;DHT22;6919;52.344;14.518;2023-05-13T04:47:12;14.10;63.10
13694;DHT22;6919;52.344;14.518;2023-05-13T04:49:42;13.90;46.40
13694;DHT22;6919;52.344;14.518;2023-05-13T04:52:10;13.80;45.70
13694;DHT22;6919;52.344;14.518;2023-05-13T04:54:39;13.90;59.10
13694;DHT22;6919;52.344;14.518;2023-05-13T04:57:08;14.20;48.10
13694;DHT22;6919;52.344;14.518;2023-05-13T04:59:36;14.10;54.70
13694;DHT22;6919;52.344;14.518;2023-05-13T05:02:04;14.20;61.90
13694;DHT22;6919;52.344;14.518;2023-05-13T05:04:33;14.30;55.20
13694;DHT22;6919;52.344;14.518;2023-05-13T05:07:02;14.30;55.20
13694;DHT22;6919;52.344;14.518;2023-05-13T05:09:31;14.20;34.70
13694;DHT22;6919;52.344;14.518;2023-05-13T05:11:59;14.70;31.10
13694;DHT22;6919;52.344;14.518;2023-05-13T05:14:28;14.60;26.70
13694;DHT22;6919;52.344;14.518;2023-05-13T05:16:57;14.90;28.70
13694;DHT22;6919;52.344;14.518;2023-05-13T05:19:25;15.10;28.20
13694;DHT22;6919;52.344;14.518;2023-05-13T05:21:54;15.10;28.00
13694;DHT22;6919;52.344;14.518;2023-05-13T05:24:23;15.20;27.20
13694;DHT22;6919;52.344;14.518;2023-05-13T05:26:52;15.30;18.20
13694;DHT22;6919;52.344;14.518;2023-05-13T05:29:20;15.50;11.20
13694;DHT22;6919;52.344;14.518;2023-05-13T05:31:48;15.70;7.60
13694;DHT22;6919;52.344;14.518;2023-05-13T05:34:16;15.90;7.50
13694;DHT22;6919;52.344;14.518;2023-05-13T05:36:45;15.80;7.00
13694;DHT22;6919;52.344;14.518;2023-05-13T05:39:13;16.00;6.90
13694;DHT22;6919;52.344;14.518;2023-05-13T05:41:43;16.20;2.90
13694;DHT22;6919;52.344;14.518;2023-05-13T05:44:12;16.20;1.00
13694;DHT22;6919;52.344;14.518;2023-05-13T05:46:40;16.30;1.00
13694;DHT22;6919;52.344;14.518;2023-05-13T05:49:09;16.30;1.00
13694;DHT22;6919;52.344;14.518;2023-05-13T05:51:37;16.40;15.50
13694;DHT22;6919;52.344;14.518;2023-05-13T05:54:05;16.50;1.00
13694;DHT22;6919;52.344;14.518;2023-05-13T05:56:33;16.50;4.60
13694;DHT22;6919;52.344;14.518;2023-05-13T05:59:03;16.60;1.00
13694;DHT22;6919;52.344;14.518;2023-05-13T06:01:31;16.70;1.00
13694;DHT22;6919;52.344;14.518;2023-05-13T06:04:03;16.90;1.00
13694;DHT22;6919;52.344;14.518;2023-05-13T06:06:32;17.30;1.00
13694;DHT22;6919;52.344;14.518;2023-05-13T06:09:01;17.40;1.00
13694;DHT22;6919;52.344;14.518;2023-05-13T06:11:29;17.30;1.00
13694;DHT22;6919;52.344;14.518;2023-05-13T06:13:58;17.70;1.00
13694;DHT22;6919;52.344;14.518;2023-05-13T06:16:27;17.90;1.00
13694;DHT22;6919;52.344;14.518;2023-05-13T06:18:56;18.00;1.00
13694;DHT22;6919;52.344;14.518;2023-05-13T06:21:25;18.00;1.00
13694;DHT22;6919;52.344;14.518;2023-05-13T06:23:53;18.00;1.00
13694;DHT22;6919;52.344;14.518;2023-05-13T06:26:21;18.10;1.00
13694;DHT22;6919;52.344;14.518;2023-05-13T06:28:50;18.10;1.00
13694;DHT22;6919;52.344;14.518;2023-05-13T06:31:18;18.10;1.00
13694;DHT22;6919;52.344;14.518;2023-05-13T06:33:48;18.30;1.00
13694;DHT22;6919;52.344;14.518;2023-05-13T06:36:16;18.70;1.00
13694;DHT22;6919;52.344;14.518;2023-05-13T06:38:44;18.80;1.00
13694;DHT22;6919;52.344;14.518;2023-05-13T06:41:12;18.90;1.00
13694;DHT22;6919;52.344;14.518;2023-05-13T06:43:41;19.00;1.00
13694;DHT22;6919;52.344;14.518;2023-05-13T06:46:11;19.20;1.00
13694;DHT22;6919;52.344;14.518;2023-05-13T06:48:40;19.30;1.00
13694;DHT22;6919;52.344;14.518;2023-05-13T06:51:10;19.50;1.00
13694;DHT22;6919;52.344;14.518;2023-05-13T06:53:38;19.60;1.00
13694;DHT22;6919;52.344;14.518;2023-05-13T06:56:06;19.60;1.00
13694;DHT22;6919;52.344;14.518;2023-05-13T06:58:34;19.90;1.00
13694;DHT22;6919;52.344;14.518;2023-05-13T07:01:03;20.10;1.00
13694;DHT22;6919;52.344;14.518;2023-05-13T07:03:31;20.20;1.00
13694;DHT22;6919;52.344;14.518;2023-05-13T07:05:59;20.10;1.00
13694;DHT22;6919;52.344;14.518;2023-05-13T07:08:29;20.40;1.00
13694;DHT22;6919;52.344;14.518;2023-05-13T07:10:57;20.50;1.00
13694;DHT22;6919;52.344;14.518;2023-05-13T07:13:26;20.60;1.00
13694;DHT22;6919;52.344;14.518;2023-05-13T07:15:56;20.60;1.00
13694;DHT22;6919;52.344;14.518;2023-05-13T07:18:24;20.50;1.00
13694;DHT22;6919;52.344;14.518;2023-05-13T07:20:53;20.60;1.00
13694;DHT22;6919;52.344;14.518;2023-05-13T07:23:22;20.50;1.00
13694;DHT22;6919;52.344;14.518;2023-05-13T07:25:51;20.70;1.00
13694;DHT22;6919;52.344;14.518;2023-05-13T07:28:19;20.60;1.00
13694;DHT22;6919;52.344;14.518;2023-05-13T07:30:48;20.60;1.00
13694;DHT22;6919;52.344;14.518;2023-05-13T07:33:19;20.50;1.00
13694;DHT22;6919;52.344;14.518;2023-05-13T07:35:47;20.30;1.00
13694;DHT22;6919;52.344;14.518;2023-05-13T07:38:16;20.50;1.00
13694;DHT22;6919;52.344;14.518;2023-05-13T07:40:44;20.60;1.00
13694;DHT22;6919;52.344;14.518;2023-05-13T07:43:14;20.70;1.00
13694;DHT22;6919;52.344;14.518;2023-05-13T07:45:50;20.60;1.00
13694;DHT22;6919;52.344;14.518;2023-05-13T07:48:20;20.80;1.00
13694;DHT22;6919;52.344;14.518;2023-05-13T07:51:10;20.80;1.00
13694;DHT22;6919;52.344;14.518;2023-05-13T07:53:44;20.90;1.00
13694;DHT22;6919;52.344;14.518;2023-05-13T07:56:24;21.00;1.00
13694;DHT22;6919;52.344;14.518;2023-05-13T07:59:26;21.10;1.00
13694;DHT22;6919;52.344;14.518;2023-05-13T08:01:57;21.10;1.00
13694;DHT22;6919;52.344;14.518;2023-05-13T08:04:28;20.90;1.00
13694;DHT22;6919;52.344;14.518;2023-05-13T08:06:56;20.70;1.00
13694;DHT22;6919;52.344;14.518;2023-05-13T08:09:25;20.70;1.00
13694;DHT22;6919;52.344;14.518;2023-05-13T08:11:53;20.90;1.00
13694;DHT22;6919;52.344;14.518;2023-05-13T08:14:23;21.20;1.00
13694;DHT22;6919;52.344;14.518;2023-05-13T08:16:51;21.40;1.00
13694;DHT22;6919;52.344;14.518;2023-05-13T08:19:19;21.70;1.00
13694;DHT22;6919;52.344;14.518;2023-05-13T08:21:48;21.60;1.00
13694;DHT22;6919;52.344;14.518;2023-05-13T08:24:16;21.60;1.00
13694;DHT22;6919;52.344;14.518;2023-05-13T08:26:44;21.40;1.00
13694;DHT22;6919;52.344;14.518;2023-05-13T08:29:13;21.40;1.00
13694;DHT22;6919;52.344;14.518;2023-05-13T08:31:42;21.20;1.00
13694;DHT22;6919;52.344;14.518;2023-05-13T08:34:11;21.30;1.00
13694;DHT22;6919;52.344;14.518;2023-05-13T08:36:39;21.30;1.00
13694;DHT22;6919;52.344;14.518;2023-05-13T08:39:07;21.40;1.00
13694;DHT22;6919;52.344;14.518;2023-05-13T08:41:36;21.60;1.00
13694;DHT22;6919;52.344;14.518;2023-05-13T08:44:06;21.60;1.00
13694;DHT22;6919;52.344;14.518;2023-05-13T08:46:40;21.60;1.00
13694;DHT22;6919;52.344;14.518;2023-05-13T08:49:15;21.80;1.00
13694;DHT22;6919;52.344;14.518;2023-05-13T08:51:44;21.80;1.00
13694;DHT22;6919;52.344;14.518;2023-05-13T08:54:13;21.80;1.00
13694;DHT22;6919;52.344;14.518;2023-05-13T08:56:42;21.60;1.00
13694;DHT22;6919;52.344;14.518;2023-05-13T08:59:10;21.30;1.00
13694;DHT22;6919;52.344;14.518;2023-05-13T09:01:38;21.10;1.00
13694;DHT22;6919;52.344;14.518;2023-05-13T09:04:09;21.20;1.00
13694;DHT22;6919;52.344;14.518;2023-05-13T09:06:38;21.50;1.00
13694;DHT22;6919;52.344;14.518;2023-05-13T09:09:06;21.60;1.00
13694;DHT22;6919;52.344;14.518;2023-05-13T09:11:35;21.60;1.00
13694;DHT22;6919;52.344;14.518;2023-05-13T09:14:08;21.70;1.00
13694;DHT22;6919;52.344;14.518;2023-05-13T09:16:37;21.70;1.00
13694;DHT22;6919;52.344;14.518;2023-05-13T09:19:13;21.60;1.00
13694;DHT22;6919;52.344;14.518;2023-05-13T09:21:43;21.70;1.00
13694;DHT22;6919;52.344;14.518;2023-05-13T09:24:13;21.60;1.00
13694;DHT22;6919;52.344;14.518;2023-05-13T09:26:45;21.70;1.00
13694;DHT22;6919;52.344;14.518;2023-05-13T09:29:19;21.70;1.00
13694;DHT22;6919;52.344;14.518;2023-05-13T09:31:50;21.60;1.00
13694;DHT22;6919;52.344;14.518;2023-05-13T09:34:28;21.50;1.00
13694;DHT22;6919;52.344;14.518;2023-05-13T09:36:58;21.50;1.00
13694;DHT22;6919;52.344;14.518;2023-05-13T09:39:30;21.40;1.00
13694;DHT22;6919;52.344;14.518;2023-05-13T09:42:00;21.70;1.00
13694;DHT22;6919;52.344;14.518;2023-05-13T09:44:31;21.80;1.00
13694;DHT22;6919;52.344;14.518;2023-05-13T09:47:00;21.80;1.00
13694;DHT22;6919;52.344;14.518;2023-05-13T09:49:30;21.50;1.00
13694;DHT22;6919;52.344;14.518;2023-05-13T09:51:59;21.70;1.00
13694;DHT22;6919;52.344;14.518;2023-05-13T09:54:33;21.50;1.00
13694;DHT22;6919;52.344;14.518;2023-05-13T09:57:03;21.40;1.00
13694;DHT22;6919;52.344;14.518;2023-05-13T09:59:32;21.30;1.00
13694;DHT22;6919;52.344;14.518;2023-05-13T10:02:03;21.30;1.00
13694;DHT22;6919;52.344;14.518;2023-05-13T10:04:34;21.30;1.00
13694;DHT22;6919;52.344;14.518;2023-05-13T10:07:04;21.40;1.00
13694;DHT22;6919;52.344;14.518;2023-05-13T10:09:35;21.50;1.00
13694;DHT22;6919;52.344;14.518;2023-05-13T10:12:06;21.70;1.00
13694;DHT22;6919;52.344;14.518;2023-05-13T10:14:37;21.50;1.00
13694;DHT22;6919;52.344;14.518;2023-05-13T10:17:07;21.50;1.00
13694;DHT22;6919;52.344;14.518;2023-05-13T10:19:37;21.50;1.00
13694;DHT22;6919;52.344;14.518;2023-05-13T10:22:07;21.60;1.00
13694;DHT22;6919;52.344;14.518;2023-05-13T10:24:37;21.70;1.00
13694;DHT22;6919;52.344;14.518;2023-05-13T10:27:06;21.80;1.00
13694;DHT22;6919;52.344;14.518;2023-05-13T10:29:37;21.90;1.00
13694;DHT22;6919;52.344;14.518;2023-05-13T10:32:08;21.70;1.00
13694;DHT22;6919;52.344;14.518;2023-05-13T10:34:39;21.50;1.00
13694;DHT22;6919;52.344;14.518;2023-05-13T10:37:48;21.80;1.00
13694;DHT22;6919;52.344;14.518;2023-05-13T10:40:42;22.10;1.00
13694;DHT22;6919;52.344;14.518;2023-05-13T10:43:23;22.60;1.00
13694;DHT22;6919;52.344;14.518;2023-05-13T10:45:56;23.00;1.00
13694;DHT22;6919;52.344;14.518;2023-05-13T10:48:37;22.80;1.00
13694;DHT22;6919;52.344;14.518;2023-05-13T10:51:13;22.30;1.00
13694;DHT22;6919;52.344;14.518;2023-05-13T10:53:45;22.10;1.00
13694;DHT22;6919;52.344;14.518;2023-05-13T10:56:14;22.30;1.00
13694;DHT22;6919;52.344;14.518;2023-05-13T10:58:56;22.00;1.00
13694;DHT22;6919;52.344;14.518;2023-05-13T11:01:27;21.50;1.00
13694;DHT22;6919;52.344;14.518;2023-05-13T11:03:58;21.20;1.00
13694;DHT22;6919;52.344;14.518;2023-05-13T11:06:33;21.50;1.00
13694;DHT22;6919;52.344;14.518;2023-05-13T11:09:04;21.70;1.00
13694;DHT22;6919;52.344;14.518;2023-05-13T11:11:35;21.50;1.00
13694;DHT22;6919;52.344;14.518;2023-05-13T11:14:16;21.70;1.00
13694;DHT22;6919;52.344;14.518;2023-05-13T11:16:52;22.20;1.00
13694;DHT22;6919;52.344;14.518;2023-05-13T11:19:24;22.90;1.00
13694;DHT22;6919;52.344;14.518;2023-05-13T11:21:56;23.00;1.00
13694;DHT22;6919;52.344;14.518;2023-05-13T11:24:31;23.30;1.00
13694;DHT22;6919;52.344;14.518;2023-05-13T11:27:11;23.10;1.00
13694;DHT22;6919;52.344;14.518;2023-05-13T11:29:47;22.50;1.00
13694;DHT22;6919;52.344;14.518;2023-05-13T11:32:51;22.40;1.00
13694;DHT22;6919;52.344;14.518;2023-05-13T11:35:23;22.40;1.00
13694;DHT22;6919;52.344;14.518;2023-05-13T11:37:54;22.60;1.00
13694;DHT22;6919;52.344;14.518;2023-05-13T11:40:27;23.00;1.00
13694;DHT22;6919;52.344;14.518;2023-05-13T11:42:57;23.50;1.00
13694;DHT22;6919;52.344;14.518;2023-05-13T11:45:27;23.50;1.00
13694;DHT22;6919;52.344;14.518;2023-05-13T11:47:56;23.40;1.00
13694;DHT22;6919;52.344;14.518;2023-05-13T11:50:26;23.10;1.00
13694;DHT22;6919;52.344;14.518;2023-05-13T11:52:59;23.10;1.00
13694;DHT22;6919;52.344;14.518;2023-05-13T11:55:31;23.00;1.00
13694;DHT22;6919;52.344;14.518;2023-05-13T11:58:05;22.90;1.00
13694;DHT22;6919;52.344;14.518;2023-05-13T12:00:34;23.20;1.00
13694;DHT22;6919;52.344;14.518;2023-05-13T12:03:08;23.30;1.00
13694;DHT22;6919;52.344;14.518;2023-05-13T12:05:39;23.90;1.00
13694;DHT22;6919;52.344;14.518;2023-05-13T12:08:11;24.30;1.00
13694;DHT22;6919;52.344;14.518;2023-05-13T12:10:42;24.50;1.00
13694;DHT22;6919;52.344;14.518;2023-05-13T12:13:10;24.60;1.00
13694;DHT22;6919;52.344;14.518;2023-05-13T12:15:40;24.30;1.00
13694;DHT22;6919;52.344;14.518;2023-05-13T12:18:09;23.90;1.00
13694;DHT22;6919;52.344;14.518;2023-05-13T12:20:38;23.40;1.00
13694;DHT22;6919;52.344;14.518;2023-05-13T12:23:09;23.30;1.00
13694;DHT22;6919;52.344;14.518;2023-05-13T12:25:40;23.20;1.00
13694;DHT22;6919;52.344;14.518;2023-05-13T12:28:13;23.70;1.00
13694;DHT22;6919;52.344;14.518;2023-05-13T12:30:48;24.10;1.00
13694;DHT22;6919;52.344;14.518;2023-05-13T12:33:21;24.40;1.00
13694;DHT22;6919;52.344;14.518;2023-05-13T12:35:52;24.80;1.00
13694;DHT22;6919;52.344;14.518;2023-05-13T12:38:23;24.80;1.00
13694;DHT22;6919;52.344;14.518;2023-05-13T12:40:51;25.00;1.00
13694;DHT22;6919;52.344;14.518;2023-05-13T12:43:21;25.10;1.00
13694;DHT22;6919;52.344;14.518;2023-05-13T12:45:51;24.20;1.00
13694;DHT22;6919;52.344;14.518;2023-05-13T12:48:24;24.40;1.00
13694;DHT22;6919;52.344;14.518;2023-05-13T12:50:53;25.00;1.00
13694;DHT22;6919;52.344;14.518;2023-05-13T12:53:23;26.10;1.00
13694;DHT22;6919;52.344;14.518;2023-05-13T12:55:51;27.00;1.00
13694;DHT22;6919;52.344;14.518;2023-05-13T12:58:20;27.60;1.00
13694;DHT22;6919;52.344;14.518;2023-05-13T13:00:48;27.80;1.00
13694;DHT22;6919;52.344;14.518;2023-05-13T13:03:23;28.10;1.00
13694;DHT22;6919;52.344;14.518;2023-05-13T13:05:52;28.40;1.00
13694;DHT22;6919;52.344;14.518;2023-05-13T13:08:20;28.00;1.00
13694;DHT22;6919;52.344;14.518;2023-05-13T13:10:50;28.60;1.00
13694;DHT22;6919;52.344;14.518;2023-05-13T13:13:19;28.40;1.00
13694;DHT22;6919;52.344;14.518;2023-05-13T13:15:47;27.60;1.00
13694;DHT22;6919;52.344;14.518;2023-05-13T13:18:16;27.40;1.00
13694;DHT22;6919;52.344;14.518;2023-05-13T13:20:45;27.90;1.00
13694;DHT22;6919;52.344;14.518;2023-05-13T13:23:13;26.70;1.00
13694;DHT22;6919;52.344;14.518;2023-05-13T13:25:43;25.20;1.00
13694;DHT22;6919;52.344;14.518;2023-05-13T13:28:11;25.00;1.00
13694;DHT22;6919;52.344;14.518;2023-05-13T13:30:48;24.50;1.00
13694;DHT22;6919;52.344;14.518;2023-05-13T13:33:17;24.50;1.00
13694;DHT22;6919;52.344;14.518;2023-05-13T13:35:46;24.30;1.00
13694;DHT22;6919;52.344;14.518;2023-05-13T13:38:16;24.00;1.00
13694;DHT22;6919;52.344;14.518;2023-05-13T13:40:46;24.20;1.00
13694;DHT22;6919;52.344;14.518;2023-05-13T13:43:14;24.30;1.00
13694;DHT22;6919;52.344;14.518;2023-05-13T13:45:43;24.70;1.00
13694;DHT22;6919;52.344;14.518;2023-05-13T13:48:12;25.70;1.00
13694;DHT22;6919;52.344;14.518;2023-05-13T13:50:40;26.10;1.00
13694;DHT22;6919;52.344;14.518;2023-05-13T13:53:12;26.00;1.00
13694;DHT22;6919;52.344;14.518;2023-05-13T13:55:40;25.90;1.00
13694;DHT22;6919;52.344;14.518;2023-05-13T13:58:10;26.30;1.00
13694;DHT22;6919;52.344;14.518;2023-05-13T14:00:38;26.70;1.00
13694;DHT22;6919;52.344;14.518;2023-05-13T14:03:07;26.30;1.00
13694;DHT22;6919;52.344;14.518;2023-05-13T14:05:35;26.00;1.00
13694;DHT22;6919;52.344;14.518;2023-05-13T14:08:05;25.80;1.00
13694;DHT22;6919;52.344;14.518;2023-05-13T14:10:33;25.60;1.00
13694;DHT22;6919;52.344;14.518;2023-05-13T14:13:02;25.90;1.00
13694;DHT22;6919;52.344;14.518;2023-05-13T14:15:32;26.60;1.00
13694;DHT22;6919;52.344;14.518;2023-05-13T14:18:05;27.20;1.00
13694;DHT22;6919;52.344;14.518;2023-05-13T14:20:35;27.10;1.00
13694;DHT22;6919;52.344;14.518;2023-05-13T14:23:04;27.50;1.00
13694;DHT22;6919;52.344;14.518;2023-05-13T14:25:33;27.50;1.00
13694;DHT22;6919;52.344;14.518;2023-05-13T14:28:01;27.00;1.00
13694;DHT22;6919;52.344;14.518;2023-05-13T14:30:31;26.80;1.00
13694;DHT22;6919;52.344;14.518;2023-05-13T14:32:59;26.60;1.00
13694;DHT22;6919;52.344;14.518;2023-05-13T14:35:28;26.40;1.00
13694;DHT22;6919;52.344;14.518;2023-05-13T14:37:56;26.50;1.00
13694;DHT22;6919;52.344;14.518;2023-05-13T14:40:25;25.00;1.00
13694;DHT22;6919;52.344;14.518;2023-05-13T14:42:53;23.90;1.00
13694;DHT22;6919;52.344;14.518;2023-05-13T14:45:21;23.90;1.00
13694;DHT22;6919;52.344;14.518;2023-05-13T14:47:51;25.30;1.00
13694;DHT22;6919;52.344;14.518;2023-05-13T14:50:20;25.10;1.00
13694;DHT22;6919;52.344;14.518;2023-05-13T14:52:48;24.10;1.00
13694;DHT22;6919;52.344;14.518;2023-05-13T14:55:16;24.00;1.00
13694;DHT22;6919;52.344;14.518;2023-05-13T14:57:45;24.40;1.00
13694;DHT22;6919;52.344;14.518;2023-05-13T15:00:14;23.90;1.00
13694;DHT22;6919;52.344;14.518;2023-05-13T15:02:43;24.00;1.00
13694;DHT22;6919;52.344;14.518;2023-05-13T15:05:13;23.60;1.00
13694;DHT22;6919;52.344;14.518;2023-05-13T15:07:41;23.70;1.00
13694;DHT22;6919;52.344;14.518;2023-05-13T15:10:11;24.20;1.00
13694;DHT22;6919;52.344;14.518;2023-05-13T15:12:39;25.00;1.00
13694;DHT22;6919;52.344;14.518;2023-05-13T15:15:09;25.20;1.00
13694;DHT22;6919;52.344;14.518;2023-05-13T15:17:38;25.20;1.00
13694;DHT22;6919;52.344;14.518;2023-05-13T15:20:07;24.60;1.00
13694;DHT22;6919;52.344;14.518;2023-05-13T15:22:37;24.00;1.00
13694;DHT22;6919;52.344;14.518;2023-05-13T15:25:06;23.20;1.00
13694;DHT22;6919;52.344;14.518;2023-05-13T15:27:35;22.90;1.00
13694;DHT22;6919;52.344;14.518;2023-05-13T15:30:04;22.60;1.00
13694;DHT22;6919;52.344;14.518;2023-05-13T15:32:34;23.00;1.00
13694;DHT22;6919;52.344;14.518;2023-05-13T15:35:02;23.20;1.00
13694;DHT22;6919;52.344;14.518;2023-05-13T15:37:31;23.50;1.00
13694;DHT22;6919;52.344;14.518;2023-05-13T15:40:01;23.90;1.00
13694;DHT22;6919;52.344;14.518;2023-05-13T15:42:29;23.80;1.00
13694;DHT22;6919;52.344;14.518;2023-05-13T15:44:57;23.80;1.00
13694;DHT22;6919;52.344;14.518;2023-05-13T15:47:26;23.50;1.00
13694;DHT22;6919;52.344;14.518;2023-05-13T15:49:54;23.30;1.00
13694;DHT22;6919;52.344;14.518;2023-05-13T15:52:23;22.90;1.00
13694;DHT22;6919;52.344;14.518;2023-05-13T15:54:51;22.40;1.00
13694;DHT22;6919;52.344;14.518;2023-05-13T15:57:21;21.70;1.00